Time;durP1;ratioP1;P1;durP2;ratioP2;P2;SDS_P1;SDS_P2;PMS_P1;PMS_P2;Temp;Humidity;BMP_temperature;BMP_pressure;BME280_temperature;BME280_humidity;BME280_pressure;Samples;Min_cycle;Max_cycle;Signal;HPM_P1;HPM_P2
2024/03/10 00:01:29;;;;;;;18.23;11.18;;;12.10;99.90;;;;;;5021244;28;20018;-75
2024/03/10 00:03:54;;;;;;;19.92;12.30;;;12.10;99.90;;;;;;5021213;28;20064;-76
2024/03/10 00:06:20;;;;;;;19.30;12.65;;;12.00;99.90;;;;;;5008771;28;20045;-75
2024/03/10 00:08:46;;;;;;;19.45;12.57;;;12.00;99.90;;;;;;5023580;28;20084;-75
2024/03/10 00:11:14;;;;;;;19.17;10.82;;;12.00;99.90;;;;;;5022647;28;20025;-75
2024/03/10 00:13:41;;;;;;;17.73;11.75;;;11.90;99.90;;;;;;5021626;28;20057;-75
2024/03/10 00:16:09;;;;;;;20.27;11.98;;;11.80;99.90;;;;;;5026310;28;20022;-77
2024/03/10 00:18:38;;;;;;;20.33;11.55;;;11.80;99.90;;;;;;5020359;28;20445;-75
2024/03/10 00:21:07;;;;;;;18.52;11.38;;;11.70;99.90;;;;;;5001396;28;20022;-76
2024/03/10 00:23:33;;;;;;;20.33;11.70;;;11.70;99.90;;;;;;5021561;28;20033;-76
2024/03/10 00:25:59;;;;;;;19.13;11.85;;;11.70;99.90;;;;;;5021054;28;20108;-77
2024/03/10 00:28:25;;;;;;;19.35;12.82;;;11.70;99.90;;;;;;5022401;28;20091;-75
2024/03/10 00:30:50;;;;;;;19.63;12.55;;;11.80;99.90;;;;;;5024175;28;20033;-76
2024/03/10 00:33:16;;;;;;;18.27;12.18;;;11.70;99.90;;;;;;5023175;28;20026;-75
2024/03/10 00:35:43;;;;;;;18.05;11.75;;;11.70;99.90;;;;;;5023628;28;20060;-75
2024/03/10 00:38:09;;;;;;;18.55;12.18;;;11.70;99.90;;;;;;5022195;28;20052;-76
2024/03/10 00:40:37;;;;;;;18.45;11.93;;;11.70;99.90;;;;;;5019294;28;20038;-76
2024/03/10 00:43:03;;;;;;;18.60;12.82;;;11.60;99.90;;;;;;5019764;28;20029;-76
2024/03/10 00:45:29;;;;;;;20.20;11.82;;;11.60;99.90;;;;;;5019236;28;20413;-75
2024/03/10 00:47:55;;;;;;;22.75;11.93;;;11.60;99.90;;;;;;5020109;28;20034;-77
2024/03/10 00:50:21;;;;;;;17.63;11.85;;;11.60;99.90;;;;;;5017745;28;20028;-77
2024/03/10 00:52:47;;;;;;;19.95;11.85;;;11.60;99.90;;;;;;5021391;28;20022;-76
2024/03/10 00:55:13;;;;;;;21.88;13.13;;;11.60;99.90;;;;;;5004165;28;20025;-76
2024/03/10 00:57:40;;;;;;;17.00;11.73;;;11.60;99.90;;;;;;5023878;28;20026;-76
2024/03/10 01:00:11;;;;;;;19.30;12.30;;;11.60;99.90;;;;;;5024235;28;20067;-76
2024/03/10 01:02:37;;;;;;;21.35;13.05;;;11.60;99.90;;;;;;5022489;28;20087;-76
2024/03/10 01:05:05;;;;;;;20.63;12.60;;;11.50;99.90;;;;;;5021444;28;20398;-77
2024/03/10 01:07:31;;;;;;;20.08;12.95;;;11.50;99.90;;;;;;5023372;28;20455;-75
2024/03/10 01:09:57;;;;;;;19.38;13.02;;;11.50;99.90;;;;;;5021439;28;20108;-75
2024/03/10 01:12:23;;;;;;;22.83;14.10;;;11.40;99.90;;;;;;5023882;28;20040;-76
2024/03/10 01:14:48;;;;;;;24.05;13.00;;;11.50;99.90;;;;;;5002925;28;20017;-75
2024/03/10 01:17:14;;;;;;;26.52;14.98;;;11.40;99.90;;;;;;5007183;28;20053;-76
2024/03/10 01:19:40;;;;;;;23.08;14.38;;;11.50;99.90;;;;;;5021356;28;20026;-75
2024/03/10 01:22:06;;;;;;;24.45;16.30;;;11.50;99.90;;;;;;5019538;28;20055;-78
2024/03/10 01:24:32;;;;;;;29.77;16.15;;;11.50;99.90;;;;;;5007301;28;20382;-76
2024/03/10 01:26:58;;;;;;;23.33;14.18;;;11.40;99.90;;;;;;5017614;28;20036;-76
2024/03/10 01:29:25;;;;;;;22.70;15.13;;;11.40;99.90;;;;;;5017555;28;20022;-77
2024/03/10 01:31:51;;;;;;;23.92;15.18;;;11.30;99.90;;;;;;5018318;28;20017;-76
2024/03/10 01:34:19;;;;;;;24.02;15.55;;;11.30;99.90;;;;;;5019057;28;20022;-78
2024/03/10 01:36:46;;;;;;;26.60;17.48;;;11.30;99.90;;;;;;5025599;28;20026;-76
2024/03/10 01:39:11;;;;;;;24.23;15.30;;;11.20;99.90;;;;;;5032673;28;20033;-76
2024/03/10 01:41:37;;;;;;;26.85;17.17;;;11.20;99.90;;;;;;5033334;28;20013;-75
2024/03/10 01:44:05;;;;;;;27.58;16.55;;;11.10;99.90;;;;;;5032565;28;20033;-75
2024/03/10 01:46:32;;;;;;;26.88;17.33;;;11.10;99.90;;;;;;5032818;28;20026;-75
2024/03/10 01:48:59;;;;;;;30.42;17.50;;;11.10;99.90;;;;;;5033213;28;20079;-75
2024/03/10 01:51:25;;;;;;;26.90;17.48;;;11.10;99.90;;;;;;5033240;28;20474;-76
2024/03/10 01:53:51;;;;;;;27.02;16.35;;;11.10;99.90;;;;;;5032965;28;20025;-76
2024/03/10 01:56:18;;;;;;;25.75;16.83;;;11.10;99.90;;;;;;5033357;28;20059;-75
2024/03/10 01:58:45;;;;;;;27.88;16.65;;;11.00;99.90;;;;;;5032473;28;20120;-79
2024/03/10 02:01:15;;;;;;;25.27;16.95;;;11.10;99.90;;;;;;5032365;28;20021;-76
2024/03/10 02:03:43;;;;;;;26.83;17.83;;;11.10;99.90;;;;;;5032444;28;20427;-76
2024/03/10 02:06:09;;;;;;;30.33;16.88;;;11.00;99.90;;;;;;5032704;28;20546;-74
2024/03/10 02:08:39;;;;;;;27.88;17.05;;;11.00;99.90;;;;;;5032408;28;20096;-78
2024/03/10 02:11:10;;;;;;;30.35;17.85;;;11.00;99.90;;;;;;5033022;28;20026;-76
2024/03/10 02:13:36;;;;;;;30.55;17.65;;;10.90;99.90;;;;;;5032331;28;20497;-76
2024/03/10 02:16:03;;;;;;;30.90;17.88;;;11.00;99.90;;;;;;5032565;28;20025;-78
2024/03/10 02:18:30;;;;;;;29.00;17.35;;;11.00;99.90;;;;;;5032538;28;20010;-80
2024/03/10 02:20:57;;;;;;;27.80;16.40;;;10.90;99.90;;;;;;5032337;28;20513;-76
2024/03/10 02:23:35;;;;;;;28.52;16.95;;;11.00;99.90;;;;;;5026982;28;20044;-78
2024/03/10 02:26:01;;;;;;;32.25;18.33;;;10.90;99.90;;;;;;5032185;28;20029;-77
2024/03/10 02:28:46;;;;;;;30.73;18.63;;;10.90;99.90;;;;;;5032014;28;20040;-76
2024/03/10 02:47:43;;;;;;;27.15;18.25;;;10.90;99.90;;;;;;5032186;28;20037;-74
2024/03/10 02:50:10;;;;;;;33.55;18.25;;;11.00;99.90;;;;;;5032158;28;20026;-75
2024/03/10 02:52:35;;;;;;;26.23;16.77;;;10.90;99.90;;;;;;5031702;28;20013;-78
2024/03/10 02:55:03;;;;;;;28.10;16.75;;;10.90;99.90;;;;;;5032047;28;20025;-77
2024/03/10 02:57:33;;;;;;;30.27;16.98;;;10.80;99.90;;;;;;5031727;28;20018;-74
2024/03/10 02:59:59;;;;;;;27.77;15.93;;;10.80;99.90;;;;;;5032021;28;20032;-74
2024/03/10 03:02:25;;;;;;;29.10;16.48;;;10.80;99.90;;;;;;5032020;28;20148;-75
2024/03/10 03:04:51;;;;;;;27.23;16.70;;;10.80;99.90;;;;;;5032077;28;20037;-78
2024/03/10 03:07:18;;;;;;;25.20;16.13;;;10.90;99.90;;;;;;5031536;28;20124;-74
2024/03/10 03:09:47;;;;;;;26.67;15.48;;;11.00;99.90;;;;;;5032571;28;20096;-76
2024/03/10 03:12:13;;;;;;;23.98;15.43;;;10.90;99.90;;;;;;5031529;28;20022;-75
2024/03/10 03:14:39;;;;;;;21.30;13.85;;;11.00;99.90;;;;;;5032215;28;20462;-76
2024/03/10 03:17:05;;;;;;;28.13;16.00;;;11.00;99.90;;;;;;5031675;28;20029;-74
2024/03/10 03:19:32;;;;;;;28.05;16.77;;;11.00;99.90;;;;;;5014466;28;20048;-74
2024/03/10 03:22:00;;;;;;;35.55;16.33;;;11.00;99.90;;;;;;5013746;28;20029;-75
2024/03/10 03:24:26;;;;;;;28.20;16.30;;;10.80;99.90;;;;;;5014497;28;20041;-76
2024/03/10 03:26:53;;;;;;;25.20;16.38;;;10.80;99.90;;;;;;5031738;28;20071;-76
2024/03/10 03:29:19;;;;;;;23.90;14.43;;;10.80;99.90;;;;;;5031871;28;20029;-77
2024/03/10 03:31:46;;;;;;;25.63;15.98;;;10.90;99.90;;;;;;5031726;28;20365;-74
2024/03/10 03:34:11;;;;;;;27.67;14.82;;;10.90;99.90;;;;;;5031844;28;20017;-74
2024/03/10 03:36:37;;;;;;;25.38;15.55;;;11.00;99.90;;;;;;5031882;28;20018;-74
2024/03/10 03:39:06;;;;;;;27.48;15.15;;;10.90;99.90;;;;;;5014166;28;20445;-76
2024/03/10 03:41:32;;;;;;;23.02;13.90;;;10.80;99.90;;;;;;5030896;28;20041;-79
2024/03/10 03:43:59;;;;;;;23.08;14.05;;;10.80;99.90;;;;;;5031364;28;20048;-79
2024/03/10 03:46:25;;;;;;;25.33;14.77;;;10.80;99.90;;;;;;5031928;28;20504;-77
2024/03/10 03:48:50;;;;;;;26.08;15.35;;;10.70;99.90;;;;;;5031793;28;20034;-81
2024/03/10 03:51:16;;;;;;;26.77;15.57;;;10.70;99.90;;;;;;5031604;28;20381;-75
2024/03/10 03:53:44;;;;;;;28.35;15.82;;;10.70;99.90;;;;;;5031408;28;20446;-74
2024/03/10 03:56:11;;;;;;;25.67;16.83;;;10.60;99.90;;;;;;5032002;28;20037;-78
2024/03/10 03:58:37;;;;;;;27.13;15.43;;;10.50;99.90;;;;;;5013631;28;20041;-79
2024/03/10 04:01:04;;;;;;;30.13;16.52;;;10.50;99.90;;;;;;5031626;28;20025;-76
2024/03/10 04:03:33;;;;;;;28.65;16.75;;;10.60;99.90;;;;;;5031705;28;20091;-79
2024/03/10 04:05:58;;;;;;;23.98;16.13;;;10.50;99.90;;;;;;5031673;28;20044;-74
2024/03/10 04:08:24;;;;;;;27.83;16.65;;;10.50;99.90;;;;;;5031436;28;20804;-76
2024/03/10 04:10:50;;;;;;;29.30;17.70;;;10.60;99.90;;;;;;5031103;28;20099;-80
2024/03/10 04:13:16;;;;;;;27.35;17.23;;;10.60;99.90;;;;;;5031360;28;20090;-76
2024/03/10 04:15:42;;;;;;;29.08;16.25;;;10.50;99.90;;;;;;5031978;28;20049;-80
2024/03/10 04:18:08;;;;;;;28.83;16.50;;;10.40;99.90;;;;;;5031847;28;20055;-77
2024/03/10 04:20:35;;;;;;;30.58;17.17;;;10.50;99.90;;;;;;5031628;28;20014;-79
2024/03/10 04:23:05;;;;;;;28.20;17.30;;;10.50;99.90;;;;;;5031883;28;20030;-78
2024/03/10 04:25:32;;;;;;;30.02;17.23;;;10.50;99.90;;;;;;5034804;28;20014;-77
2024/03/10 04:27:58;;;;;;;28.92;16.98;;;10.40;99.90;;;;;;5034893;28;20030;-82
2024/03/10 04:30:23;;;;;;;29.15;16.23;;;10.40;99.90;;;;;;5034805;28;20022;-81
2024/03/10 04:32:49;;;;;;;29.73;18.35;;;10.40;99.90;;;;;;5034771;28;20074;-82
2024/03/10 04:35:19;;;;;;;31.40;17.58;;;10.40;99.90;;;;;;5034879;28;20109;-78
2024/03/10 04:37:45;;;;;;;26.83;16.20;;;10.40;99.90;;;;;;5034459;28;20056;-82
2024/03/10 04:40:12;;;;;;;27.42;16.95;;;10.30;99.90;;;;;;5016644;28;20046;-77
2024/03/10 04:42:39;;;;;;;28.77;16.52;;;10.30;99.90;;;;;;5034768;28;20028;-81
2024/03/10 04:45:06;;;;;;;30.85;17.15;;;10.20;99.90;;;;;;5033656;28;20037;-77
2024/03/10 04:47:33;;;;;;;26.30;16.95;;;10.10;99.90;;;;;;5033668;28;20026;-82
2024/03/10 04:50:02;;;;;;;28.20;17.13;;;10.00;99.90;;;;;;5029439;28;20030;-76
2024/03/10 04:52:27;;;;;;;28.73;17.17;;;10.00;99.90;;;;;;5027737;28;20101;-79
2024/03/10 04:54:53;;;;;;;31.50;18.45;;;10.00;99.90;;;;;;5021098;28;20104;-76
2024/03/10 04:57:19;;;;;;;30.85;18.35;;;10.00;99.90;;;;;;5034518;28;20053;-75
2024/03/10 04:59:45;;;;;;;27.23;17.27;;;9.90;99.90;;;;;;5016503;28;20033;-79
2024/03/10 05:02:11;;;;;;;29.52;18.40;;;9.90;99.90;;;;;;5034455;28;20018;-80
2024/03/10 05:04:37;;;;;;;27.67;16.52;;;9.90;99.90;;;;;;5033412;28;20383;-79
2024/03/10 05:07:04;;;;;;;30.42;17.25;;;10.00;99.90;;;;;;5033798;28;20026;-76
2024/03/10 05:09:30;;;;;;;29.02;17.92;;;10.00;99.90;;;;;;5020965;28;20505;-78
2024/03/10 05:11:56;;;;;;;28.35;17.20;;;9.90;99.90;;;;;;5016423;28;20386;-76
2024/03/10 05:14:22;;;;;;;29.42;18.08;;;9.80;99.90;;;;;;5034157;28;20030;-75
2024/03/10 05:16:48;;;;;;;27.75;17.30;;;9.80;99.90;;;;;;5034041;28;20109;-76
2024/03/10 05:19:13;;;;;;;28.05;17.38;;;9.80;99.90;;;;;;5034076;28;20113;-76
2024/03/10 05:21:47;;;;;;;29.95;17.45;;;9.70;99.90;;;;;;5033562;28;20109;-75
2024/03/10 05:24:13;;;;;;;29.25;17.35;;;9.70;99.90;;;;;;5034091;28;20040;-75
2024/03/10 05:26:39;;;;;;;30.55;18.67;;;9.70;99.90;;;;;;5033776;28;20075;-82
2024/03/10 05:29:05;;;;;;;30.23;18.00;;;9.70;99.90;;;;;;5033669;28;20029;-77
2024/03/10 05:31:33;;;;;;;31.27;18.60;;;9.80;99.90;;;;;;5033433;28;20032;-79
2024/03/10 05:34:00;;;;;;;30.10;18.23;;;9.70;99.90;;;;;;5033919;28;20029;-80
2024/03/10 05:36:27;;;;;;;29.98;18.30;;;9.60;99.90;;;;;;5033210;28;20025;-80
2024/03/10 05:38:53;;;;;;;32.42;17.98;;;9.60;99.90;;;;;;5033625;28;20043;-84
2024/03/10 05:41:19;;;;;;;31.35;18.55;;;9.60;99.90;;;;;;5033388;28;20100;-79
2024/03/10 05:43:46;;;;;;;32.85;19.92;;;9.50;99.90;;;;;;5032093;28;20041;-82
2024/03/10 05:46:14;;;;;;;30.95;18.27;;;9.60;99.90;;;;;;5003451;28;20034;-83
2024/03/10 05:48:41;;;;;;;32.05;19.08;;;9.70;99.90;;;;;;5033704;28;20025;-80
2024/03/10 05:51:13;;;;;;;31.83;18.27;;;9.60;99.90;;;;;;5015028;28;20163;-81
2024/03/10 05:53:40;;;;;;;29.67;18.25;;;9.60;99.90;;;;;;5033471;28;20395;-80
2024/03/10 05:56:07;;;;;;;28.85;18.00;;;9.50;99.90;;;;;;5014833;28;20022;-78
2024/03/10 05:58:34;;;;;;;29.27;18.42;;;9.50;99.90;;;;;;5033075;28;20025;-80
2024/03/10 06:01:03;;;;;;;27.95;18.05;;;9.40;99.90;;;;;;5033077;28;20018;-79
2024/03/10 06:03:29;;;;;;;30.42;19.05;;;9.50;99.90;;;;;;5033414;28;20032;-77
2024/03/10 06:05:55;;;;;;;30.40;18.35;;;9.40;99.90;;;;;;5032255;28;20108;-83
2024/03/10 06:08:20;;;;;;;31.15;20.10;;;9.40;99.90;;;;;;5033188;28;20112;-79
2024/03/10 06:10:46;;;;;;;32.45;20.02;;;9.40;99.90;;;;;;5032816;28;20034;-78
2024/03/10 06:13:15;;;;;;;31.80;19.30;;;9.50;99.90;;;;;;5033034;28;20026;-79
2024/03/10 06:15:41;;;;;;;30.83;19.65;;;9.50;99.90;;;;;;5032796;28;20037;-81
2024/03/10 06:18:19;;;;;;;30.23;18.45;;;9.40;99.90;;;;;;5015130;28;20060;-79
2024/03/10 06:26:22;;;;;;;31.00;18.40;;;9.50;99.90;;;;;;5003845;28;20156;-77
2024/03/10 06:28:49;;;;;;;31.83;19.58;;;9.40;99.90;;;;;;5032556;28;20059;-80
2024/03/10 06:31:16;;;;;;;31.95;19.23;;;9.40;99.90;;;;;;5032635;28;20099;-79
2024/03/10 06:33:42;;;;;;;29.98;18.13;;;9.40;99.90;;;;;;5032161;28;20052;-75
2024/03/10 06:36:11;;;;;;;29.83;18.63;;;9.40;99.90;;;;;;5014166;28;20410;-75
2024/03/10 06:38:41;;;;;;;29.60;18.13;;;9.30;99.90;;;;;;5032786;28;20033;-77
2024/03/10 06:41:11;;;;;;;29.90;18.50;;;9.30;99.90;;;;;;5031932;28;20083;-78
2024/03/10 06:43:40;;;;;;;31.20;19.92;;;9.20;99.90;;;;;;5031962;28;20033;-80
2024/03/10 06:46:09;;;;;;;30.10;18.85;;;9.30;99.90;;;;;;5031954;28;20025;-76
2024/03/10 06:48:37;;;;;;;31.05;19.27;;;9.40;99.90;;;;;;5031948;28;20026;-81
2024/03/10 06:51:05;;;;;;;32.33;19.38;;;9.50;99.90;;;;;;5019270;28;20116;-81
2024/03/10 06:53:32;;;;;;;30.30;19.17;;;9.50;99.90;;;;;;5031900;28;20029;-77
2024/03/10 06:55:58;;;;;;;30.40;17.73;;;9.40;99.90;;;;;;5032381;28;20022;-77
2024/03/10 06:58:24;;;;;;;30.20;18.80;;;9.40;99.90;;;;;;5031479;28;20079;-79
2024/03/10 07:00:50;;;;;;;33.20;20.17;;;9.40;99.90;;;;;;5032446;28;20022;-76
2024/03/10 07:03:16;;;;;;;28.27;18.00;;;9.40;99.90;;;;;;5032687;28;20655;-82
2024/03/10 07:05:42;;;;;;;28.80;18.38;;;9.50;99.90;;;;;;5041105;28;20076;-77
2024/03/10 07:08:09;;;;;;;31.00;18.58;;;9.50;99.90;;;;;;5043500;28;20053;-83
2024/03/10 07:10:41;;;;;;;29.67;17.83;;;9.50;99.90;;;;;;5024920;28;20109;-78
2024/03/10 07:13:08;;;;;;;31.67;20.23;;;9.50;99.90;;;;;;5024548;28;20017;-76
2024/03/10 07:15:34;;;;;;;32.42;19.60;;;9.50;99.90;;;;;;5014413;28;20033;-79
2024/03/10 07:17:59;;;;;;;27.55;17.60;;;9.60;99.90;;;;;;5031050;28;20544;-77
2024/03/10 07:20:26;;;;;;;28.20;17.83;;;9.70;99.90;;;;;;5032658;28;20462;-76
2024/03/10 07:22:53;;;;;;;27.35;17.05;;;9.70;99.90;;;;;;5031092;28;20647;-85
2024/03/10 07:25:20;;;;;;;28.58;18.55;;;9.90;99.90;;;;;;5028471;28;20425;-80
2024/03/10 07:27:46;;;;;;;25.83;15.80;;;9.90;99.90;;;;;;5031788;28;20036;-80
2024/03/10 07:30:12;;;;;;;25.08;16.20;;;9.90;99.90;;;;;;5017249;28;20021;-79
2024/03/10 07:32:38;;;;;;;29.25;17.35;;;9.90;99.90;;;;;;5021764;28;20077;-76
2024/03/10 07:35:05;;;;;;;28.95;17.70;;;9.90;99.90;;;;;;5029740;28;20483;-81
2024/03/10 07:37:31;;;;;;;29.23;17.75;;;9.80;99.90;;;;;;5030942;28;20071;-75
2024/03/10 07:39:57;;;;;;;28.35;16.40;;;9.90;99.90;;;;;;5030036;28;20176;-78
2024/03/10 07:42:23;;;;;;;30.05;17.33;;;9.90;99.90;;;;;;5031356;28;20030;-80
2024/03/10 07:44:49;;;;;;;31.25;16.73;;;10.00;99.90;;;;;;5032097;28;20036;-76
2024/03/10 07:47:15;;;;;;;32.10;17.35;;;10.00;99.90;;;;;;5012811;28;20116;-79
2024/03/10 07:49:41;;;;;;;32.00;18.58;;;10.10;99.90;;;;;;5032041;28;20025;-76
2024/03/10 07:52:07;;;;;;;26.35;16.40;;;10.20;99.90;;;;;;5030974;28;20017;-75
2024/03/10 07:54:33;;;;;;;27.85;17.23;;;10.10;99.90;;;;;;5031458;28;20479;-81
2024/03/10 07:56:59;;;;;;;30.90;17.42;;;10.20;99.90;;;;;;5031570;28;20409;-81
2024/03/10 07:59:25;;;;;;;28.70;18.20;;;10.10;99.90;;;;;;5032689;28;21969;-79
2024/03/10 08:01:51;;;;;;;28.73;16.95;;;10.30;99.90;;;;;;5028530;28;20033;-76
2024/03/10 08:04:17;;;;;;;28.50;16.33;;;10.30;99.90;;;;;;5034212;28;20091;-80
2024/03/10 08:06:43;;;;;;;26.35;15.45;;;10.30;99.90;;;;;;5035169;28;20109;-76
2024/03/10 08:09:15;;;;;;;26.55;16.50;;;10.30;99.90;;;;;;5035154;28;20100;-75
2024/03/10 08:11:45;;;;;;;26.93;15.97;;;10.20;99.90;;;;;;5034600;28;20101;-82
2024/03/10 08:14:10;;;;;;;23.40;15.88;;;10.30;99.90;;;;;;5035043;28;20292;-80
2024/03/10 08:16:37;;;;;;;27.75;17.90;;;10.30;99.90;;;;;;5030084;28;20038;-75
2024/03/10 08:19:03;;;;;;;25.63;16.17;;;10.30;99.90;;;;;;5025384;28;20511;-79
2024/03/10 08:21:29;;;;;;;27.08;16.60;;;10.40;99.90;;;;;;5030499;28;20097;-81
2024/03/10 08:23:55;;;;;;;24.90;14.77;;;10.40;99.90;;;;;;5035152;28;20037;-80
2024/03/10 08:26:22;;;;;;;26.58;16.45;;;10.30;99.90;;;;;;5033124;28;20163;-76
2024/03/10 08:28:48;;;;;;;25.25;15.93;;;10.40;99.90;;;;;;5007642;28;20036;-75
2024/03/10 08:31:14;;;;;;;26.17;15.40;;;10.40;99.90;;;;;;5034871;28;20037;-79
2024/03/10 08:33:40;;;;;;;27.42;15.45;;;10.40;99.90;;;;;;5034437;28;20029;-76
2024/03/10 08:36:08;;;;;;;25.30;17.17;;;10.40;99.90;;;;;;5037939;28;20025;-74
2024/03/10 08:38:35;;;;;;;23.52;15.27;;;10.60;99.90;;;;;;5039847;28;20032;-80
2024/03/10 08:41:00;;;;;;;26.20;16.30;;;10.50;99.90;;;;;;5039671;28;20100;-75
2024/03/10 08:43:28;;;;;;;26.00;15.43;;;10.60;99.90;;;;;;5035069;28;20171;-74
2024/03/10 08:45:54;;;;;;;27.40;16.55;;;10.70;99.90;;;;;;5040173;28;20044;-76
2024/03/10 08:48:20;;;;;;;26.45;15.23;;;10.80;99.90;;;;;;5034004;28;20359;-75
2024/03/10 08:50:46;;;;;;;25.10;15.32;;;10.90;99.90;;;;;;5034653;28;20036;-75
2024/03/10 08:53:13;;;;;;;26.25;15.75;;;11.00;99.90;;;;;;5039718;28;20080;-74
2024/03/10 08:55:39;;;;;;;23.17;15.07;;;11.00;99.90;;;;;;5010691;28;20549;-74
2024/03/10 08:58:05;;;;;;;22.90;14.38;;;11.20;99.90;;;;;;5032222;28;20105;-75
2024/03/10 09:00:31;;;;;;;22.00;14.77;;;11.40;99.90;;;;;;5034127;28;20494;-75
2024/03/10 09:02:57;;;;;;;22.45;14.07;;;11.40;99.90;;;;;;5033999;28;20021;-76
2024/03/10 09:05:23;;;;;;;25.95;16.30;;;11.50;99.90;;;;;;5016454;28;20095;-75
2024/03/10 09:07:50;;;;;;;23.23;14.25;;;11.60;99.90;;;;;;5034070;28;20527;-75
2024/03/10 09:10:16;;;;;;;22.42;14.52;;;11.70;99.90;;;;;;5037554;28;20029;-78
2024/03/10 09:12:42;;;;;;;24.08;15.48;;;11.80;99.90;;;;;;5033708;28;20546;-75
2024/03/10 09:15:09;;;;;;;21.05;13.55;;;11.90;99.90;;;;;;5025020;28;20053;-75
2024/03/10 09:17:38;;;;;;;23.35;13.88;;;11.80;99.90;;;;;;5028973;28;20033;-77
2024/03/10 09:20:11;;;;;;;19.92;13.27;;;11.90;99.90;;;;;;5029419;28;20105;-77
2024/03/10 09:22:39;;;;;;;;;;;12.00;99.90;;;;;;5031060;28;20021;-73
2024/03/10 09:25:07;;;;;;;22.75;13.55;;;12.00;99.90;;;;;;5025414;28;19957;-77
2024/03/10 09:27:34;;;;;;;21.80;13.27;;;12.00;99.90;;;;;;5012306;28;20021;-77
2024/03/10 09:30:00;;;;;;;20.65;13.05;;;12.00;99.90;;;;;;5021826;28;20096;-75
2024/03/10 09:32:26;;;;;;;19.75;12.85;;;12.20;99.90;;;;;;5024477;28;20467;-76
2024/03/10 09:34:53;;;;;;;19.15;11.90;;;12.20;99.90;;;;;;5029976;28;20497;-73
2024/03/10 09:37:19;;;;;;;20.45;12.60;;;12.20;99.90;;;;;;5033009;28;20028;-74
2024/03/10 09:39:45;;;;;;;18.13;12.40;;;12.20;99.90;;;;;;5032794;28;20021;-75
2024/03/10 09:42:14;;;;;;;18.50;12.18;;;12.30;99.90;;;;;;5028559;28;20025;-74
2024/03/10 09:44:42;;;;;;;17.90;12.07;;;12.30;99.90;;;;;;5025913;28;20046;-75
2024/03/10 09:47:09;;;;;;;19.90;11.40;;;12.30;99.90;;;;;;5015227;28;20021;-78
2024/03/10 09:49:37;;;;;;;16.75;12.07;;;12.40;99.90;;;;;;5030832;28;20029;-77
2024/03/10 09:52:05;;;;;;;17.40;11.30;;;12.40;99.90;;;;;;5025053;28;20026;-77
2024/03/10 09:54:32;;;;;;;18.80;12.10;;;12.30;99.90;;;;;;5032820;28;20394;-77
2024/03/10 09:56:59;;;;;;;19.20;12.70;;;12.40;99.90;;;;;;5032370;28;20028;-75
2024/03/10 09:59:41;;;;;;;15.40;10.95;;;12.40;99.90;;;;;;5031762;28;20044;-75
2024/03/10 10:02:19;;;;;;;18.98;11.55;;;12.50;99.90;;;;;;5010755;28;20037;-77
2024/03/10 10:04:56;;;;;;;17.42;12.05;;;12.60;99.90;;;;;;5032590;28;20033;-78
2024/03/10 10:07:26;;;;;;;18.10;12.43;;;12.50;99.90;;;;;;5014138;28;20385;-78
2024/03/10 10:10:01;;;;;;;16.77;11.70;;;12.60;99.90;;;;;;5027912;28;20100;-78
2024/03/10 10:12:30;;;;;;;19.02;11.88;;;12.60;99.90;;;;;;5024809;28;20021;-78
2024/03/10 10:14:56;;;;;;;16.77;11.20;;;12.60;99.90;;;;;;5002725;28;20025;-78
2024/03/10 10:17:22;;;;;;;15.35;11.32;;;12.70;99.90;;;;;;5021414;28;20508;-78
2024/03/10 10:19:50;;;;;;;17.58;12.80;;;12.70;99.90;;;;;;5017107;28;20036;-77
2024/03/10 10:22:23;;;;;;;20.63;12.95;;;12.70;99.90;;;;;;5024137;28;20013;-79
2024/03/10 10:25:02;;;;;;;17.95;12.30;;;12.80;99.90;;;;;;5025550;28;20041;-79
2024/03/10 10:27:28;;;;;;;17.23;11.95;;;12.80;99.90;;;;;;5028518;28;20045;-79
2024/03/10 10:29:54;;;;;;;18.05;12.35;;;12.80;99.90;;;;;;5028137;28;20100;-78
2024/03/10 10:32:22;;;;;;;19.85;13.18;;;12.80;99.90;;;;;;5030367;28;20478;-78
2024/03/10 10:34:50;;;;;;;17.20;12.35;;;12.80;99.90;;;;;;5026617;28;20053;-78
2024/03/10 10:37:16;;;;;;;15.55;11.68;;;12.80;99.90;;;;;;5031959;28;20017;-78
2024/03/10 10:39:41;;;;;;;19.35;12.95;;;12.80;99.90;;;;;;5022457;28;20041;-78
2024/03/10 10:42:07;;;;;;;17.63;12.13;;;12.90;99.90;;;;;;5032188;28;20112;-78
2024/03/10 10:44:34;;;;;;;20.05;12.88;;;13.00;99.90;;;;;;5011119;28;20454;-78
2024/03/10 10:47:03;;;;;;;19.75;13.07;;;13.10;99.90;;;;;;5032277;28;20088;-79
2024/03/10 10:49:32;;;;;;;17.27;13.23;;;13.20;99.90;;;;;;5031699;28;20021;-78
2024/03/10 10:51:58;;;;;;;18.30;13.02;;;13.20;99.90;;;;;;5028269;28;20052;-77
2024/03/10 10:54:24;;;;;;;18.23;11.88;;;13.30;99.90;;;;;;5025868;28;20658;-79
2024/03/10 10:56:59;;;;;;;19.10;12.95;;;13.30;99.90;;;;;;5031041;28;20025;-79
2024/03/10 10:59:26;;;;;;;16.85;11.75;;;13.30;99.90;;;;;;5013786;28;20026;-78
2024/03/10 11:02:12;;;;;;;17.33;12.98;;;13.40;99.90;;;;;;5020969;28;20033;-79
2024/03/10 11:04:40;;;;;;;23.60;12.88;;;13.40;99.90;;;;;;5006984;28;20033;-77
2024/03/10 11:07:09;;;;;;;21.35;12.82;;;13.40;99.90;;;;;;5013170;28;20025;-76
2024/03/10 11:09:36;;;;;;;20.45;13.52;;;13.40;99.90;;;;;;5015434;28;20028;-77
2024/03/10 11:12:21;;;;;;;18.90;12.75;;;13.40;99.90;;;;;;5014431;28;20048;-76
2024/03/10 11:14:52;;;;;;;21.05;14.45;;;13.40;99.90;;;;;;5016281;28;20026;-76
2024/03/10 11:17:19;;;;;;;21.63;13.35;;;13.40;99.90;;;;;;5018167;28;20153;-76
2024/03/10 11:19:49;;;;;;;22.38;13.30;;;13.50;99.90;;;;;;5012301;28;20049;-76
2024/03/10 11:22:27;;;;;;;19.58;12.30;;;13.60;99.90;;;;;;5011153;28;20029;-76
2024/03/10 11:25:08;;;;;;;19.30;12.57;;;13.50;99.90;;;;;;5012386;28;20033;-77
2024/03/10 11:27:44;;;;;;;18.25;12.20;;;13.60;99.90;;;;;;5011038;28;20140;-78
2024/03/10 11:30:41;;;;;;;20.17;13.80;;;13.60;99.90;;;;;;5013895;28;20033;-78
2024/03/10 11:33:08;;;;;;;20.65;13.05;;;13.70;99.90;;;;;;5015951;28;20034;-79
2024/03/10 11:35:37;;;;;;;19.77;12.32;;;13.80;99.90;;;;;;5018986;28;20029;-78
2024/03/10 11:38:09;;;;;;;19.25;12.70;;;13.80;99.90;;;;;;5016823;28;20037;-77
2024/03/10 11:40:35;;;;;;;19.13;12.77;;;13.70;99.90;;;;;;5018416;28;20383;-77
2024/03/10 11:43:01;;;;;;;21.73;13.40;;;13.80;99.90;;;;;;5015076;28;20026;-78
2024/03/10 11:45:30;;;;;;;20.83;13.10;;;13.80;99.90;;;;;;5015389;28;20042;-77
2024/03/10 11:47:59;;;;;;;19.00;12.75;;;14.00;99.90;;;;;;5019590;28;20474;-78
2024/03/10 11:50:29;;;;;;;19.48;12.57;;;13.90;99.90;;;;;;5019267;28;20025;-77
2024/03/10 11:52:55;;;;;;;21.30;12.85;;;14.00;99.90;;;;;;5018479;28;20104;-78
2024/03/10 11:55:21;;;;;;;21.55;14.18;;;14.00;99.90;;;;;;5017263;28;20096;-73
2024/03/10 11:57:53;;;;;;;20.10;12.60;;;14.10;99.90;;;;;;5021930;28;20021;-77
2024/03/10 12:00:23;;;;;;;19.02;12.95;;;14.20;99.90;;;;;;5020404;28;20037;-77
2024/03/10 12:02:51;;;;;;;21.23;13.38;;;14.20;99.90;;;;;;5017040;28;20048;-77
2024/03/10 12:05:17;;;;;;;20.17;13.00;;;14.30;99.90;;;;;;5020949;28;20036;-78
2024/03/10 12:07:57;;;;;;;17.60;12.27;;;14.30;99.90;;;;;;5019512;28;20022;-77
2024/03/10 12:10:28;;;;;;;17.35;11.98;;;14.30;99.90;;;;;;5019427;28;20040;-77
2024/03/10 12:12:54;;;;;;;18.65;12.80;;;14.50;99.90;;;;;;5022593;28;20028;-77
2024/03/10 12:15:24;;;;;;;18.08;12.23;;;14.70;99.90;;;;;;4998752;28;20022;-75
2024/03/10 12:17:50;;;;;;;17.90;12.68;;;14.60;99.90;;;;;;5022678;28;20034;-76
2024/03/10 12:20:18;;;;;;;20.02;13.50;;;14.60;99.90;;;;;;5018511;28;20025;-74
2024/03/10 12:22:45;;;;;;;19.92;12.90;;;14.50;99.90;;;;;;5022204;28;20953;-76
2024/03/10 12:25:12;;;;;;;18.85;12.65;;;14.60;99.90;;;;;;5019954;28;20091;-78
2024/03/10 12:27:38;;;;;;;18.02;12.70;;;14.60;99.90;;;;;;5013244;28;20393;-77
2024/03/10 12:30:16;;;;;;;18.42;12.65;;;14.60;99.90;;;;;;5018541;28;20033;-77
2024/03/10 12:32:50;;;;;;;24.55;12.45;;;14.90;99.90;;;;;;5014936;28;20026;-76
2024/03/10 12:35:22;;;;;;;19.60;13.60;;;15.10;99.90;;;;;;5017678;28;20100;-75
2024/03/10 12:37:47;;;;;;;18.57;12.57;;;15.20;99.90;;;;;;5012102;28;20022;-75
2024/03/10 12:40:16;;;;;;;21.52;12.65;;;15.20;99.90;;;;;;5013387;28;20663;-76
2024/03/10 12:42:43;;;;;;;18.02;13.27;;;15.30;99.90;;;;;;5017331;28;20041;-75
2024/03/10 12:45:10;;;;;;;18.00;12.73;;;15.40;99.90;;;;;;5015005;28;20033;-76
2024/03/10 12:47:37;;;;;;;20.08;13.68;;;15.30;99.90;;;;;;5016199;28;20030;-75
2024/03/10 12:50:07;;;;;;;20.35;13.13;;;15.20;99.90;;;;;;5016889;28;20021;-75
2024/03/10 12:52:34;;;;;;;15.15;11.48;;;15.10;99.90;;;;;;5018973;28;20079;-77